AirNav   Air Wisconsin pilot careers
 
 838 users online  

6K4 Fairview Municipal Airport
Fairview, Oklahoma, USA


FAA INFORMATION EFFECTIVE 01 FEBRUARY 2018

Location

FAA Identifier: 6K4
Lat/Long: 36-17-24.5280N / 098-28-32.9820W
36-17.408800N / 098-28.549700W
36.2901467 / -98.4758283
(estimated)
Elevation: 1272 ft. / 387.7 m (surveyed)
Variation: 07E (1990)
From city: 1 mile N of FAIRVIEW, OK
Time zone: UTC -6 (UTC -5 during Daylight Saving Time)
Zip code: 73737

Airport Operations

Airport use: Open to the public
Activation date: 03/1948
Control tower: no
ARTCC: KANSAS CITY CENTER
FSS: MC ALESTER FLIGHT SERVICE STATION
NOTAMs facility: MLC (NOTAM-D service available)
Attendance: MON-SAT DAYLIGHT HOURS
Wind indicator: lighted
Segmented circle: yes
Lights: SS-SR
Beacon: white-green (lighted land airport)
Operates sunset to sunrise.

Airport Communications

CTAF/UNICOM: 122.8
VANCE APPROACH: 126.75 [1300-0200Z++WKD, 1900-2300Z++ SUN ; CLSD SAT & FEDERAL HOL. OTHER TIMES BY NOTAM.]
VANCE DEPARTURE: 126.75 [1300-0200Z++WKD, 1900-2300Z++ SUN ; CLSD SAT & FEDERAL HOL. OTHER TIMES BY NOTAM.]
  • APCH/DEP SERVICE PROVIDED BY KANSAS CITY ARTCC ON FREQS 127.8/319.1 (PONCA CITY RCAG) WHEN VANCE APCH CTL CLSD.

Nearby radio navigation aids

VOR radial/distance  VOR name  Freq  Var
ENDr258/27.2VANCE VORTAC115.4005E
ODGr253/33.6WOODRING VOR/DME109.0008E
IFIr313/37.0KINGFISHER VORTAC114.7009E

Airport Services

Fuel available: 100LL JET-A
Parking: hangars and tiedowns
Airframe service: MINOR
Powerplant service: MINOR
Bottled oxygen: NONE
Bulk oxygen: NONE

Runway Information

Runway 17/35

Dimensions: 3620 x 60 ft. / 1103 x 18 m
Surface: asphalt/concrete, in good condition
Weight bearing capacity: 
Single wheel: 30.0
Runway edge lights: medium intensity
RUNWAY 17  RUNWAY 35
Latitude: 36-17.706433N36-17.109933N
Longitude: 098-28.544033W098-28.556767W
Elevation: 1265.0 ft.1272.0 ft.
Gradient: 0.2%0.2%
Traffic pattern: leftleft
Runway heading: 173 magnetic, 180 true353 magnetic, 360 true
Markings: nonprecision, in fair conditionnonprecision, in good condition
Touchdown point: yes, no lightsno, no lights
Obstructions: none47 ft. trees, 1050 ft. from runway, 250 ft. left of centerline, 18:1 slope to clear

Airport Ownership and Management from official FAA records

Ownership: Publicly-owned
Owner: CITY OF FAIRVIEW
CITY HALL 203 E. CENTRAL
FAIRVIEW, OK 73737
Phone 580-227-4416
Manager: JUNIOR REGIER
224 E. OKLAHOMA AVENUE
FAIRVIEW, OK 73737
Phone 580-227-3788
OR 580-227-2760.

Airport Operational Statistics

Aircraft based on the field: 21
Single engine airplanes: 20
Multi engine airplanes: 1
    
Aircraft operations: avg 103/week *
56% local general aviation
44% transient general aviation
* for 12-month period ending 11 December 2015

Instrument Procedures

NOTE: All procedures below are presented as PDF files. If you need a reader for these files, you should download the free Adobe Reader.

NOT FOR NAVIGATION. Please procure official charts for flight.
FAA instrument procedures published for use between 1 February 2018 at 0901Z and 1 March 2018 at 0900Z.

 
IAPs - Instrument Approach Procedures
RNAV (GPS) RWY 17   download (142KB)
NOTE: Special Take-Off Minimums/Departure Procedures apply   download (131KB)

Other nearby airports with instrument procedures:

KJWG - Watonga Regional Airport (26 nm S)
KEND - Vance Air Force Base (27 nm E)
KAVK - Alva Regional Airport (30 nm N)
KWDG - Enid Woodring Regional Airport (34 nm E)
1O4 - Thomas Municipal Airport (36 nm S)
 
Loc | Ops | Rwys | IFR | FBO | Links
Com | Nav | Svcs | Stats | Notes

AirNav Hotels Sweepstakes
 
Area around 6K4 (Fairview Municipal Airport)
 
Road maps at: MapQuest Bing Google
 
Aerial photo
WARNING: Photo may not be current or correct
Aerial photo of 6K4 (Fairview Municipal Airport)
Photo by Jr. Regier, Regier Flying Service, LLC
Photo taken 31-Oct-2014
looking north.

Do you have a better or more recent aerial photo of Fairview Municipal Airport that you would like to share? If so, please send us your photo.

 
Sectional chart

 
Airport distance calculator
Flying to Fairview Municipal Airport? Find the distance to fly.

From to 6K4

Sunrise and sunset
Times for 21-Feb-2018
 Local
(UTC-6)
 Zulu
(UTC)
Morning civil twilight06:4912:49
Sunrise07:1613:16
Sunset18:2000:20
Evening civil twilight18:4600:46

Current date and time
Zulu (UTC)  22-Feb-2018 03:55:23
Local (UTC-6)  21-Feb-2018 21:55:23
 
METAR
KJWG 
26nm S 
220335Z AUTO 36008KT 3SM BR OVC004 M03/M03 A3036 RMK AO2 T10281028
KEND 
27nm E 
220305Z 03006KT 10SM BKN007 OVC010 M03/M03 A3036 RMK FZDZE05 SLP301 $
KAVK 
30nm N 
220335Z AUTO 04010KT 2 1/2SM -RA CLR M04/M04 A3038 RMK AO2
KWDG 
35nm E 
220333Z AUTO 03007KT 10SM BKN009 OVC015 M02/M02 A3036 RMK AO2
KOJA 
46nm S 
220335Z AUTO 02007KT 4SM BR OVC007 M03/M03 A3035 RMK AO2
TAF
KEND 
27nm E 
211745Z 2117/2217 01010G15KT 9999 BKN015 BKN100 QNH3036INS BECMG 2117/2118 01012G18KT 9999 BKN012 BKN100 QNH3033INS BECMG 2119/2120 01015G20KT 8000 -PL BKN012 OVC100 660001 660120 640123 QNH3030INS BECMG 2123/2124 02009KT 6000 -PL BKN010 660104 QNH3030INS TEMPO 2200/2207 6000 -FZRA BR OVC005 690001 660103 BECMG 2207/2208 35009KT 6000 BR OVC005 620053 QNH3033INS BECMG 2211/2212 35006KT 9999 NSW OVC007 620073 QNH3035INS TXM01/2120Z TNM08/2212Z LAST NO AMDS AFT 2118 NEXT 2211
NOTAMs
Click for the latest NOTAMs
NOTAMs are issued by the DoD/FAA and will open in a separate window not controlled by AirNav.

 

 
 

FBO, Fuel Providers, and Aircraft Ground Support

  
 Business Name 
 
 Contact 
 
 Services / Description 
 
Fuel Prices
 
Comments
  
Regier Flying Service 580-227-3788
no information available

If you are affiliated with Regier Flying Service and would like to show here your services, contact info, web link, logo, and more, click here
100LL Jet A
FS $4.25 $3.65 
 Updated 18-Sep-2017
 
   write
FS=Full service
Update Fuel Prices
 

Would you like to see your business listed on this page?

 If your business provides an interesting product or service to pilots, flight crews, aircraft, or users of the Fairview Municipal Airport, you should consider listing it here.  To start the listing process, click on the button below
 
Add a business
 

Other Pages about Fairview Municipal Airport

Update a link
 
Copyright © AirNav, LLC. All rights reserved. Privacy Policy  Contact